createdAt,value
2018-06-18T03:01:05.548Z,14.23
2018-06-18T03:02:04.632Z,14.30
2018-06-18T03:03:04.046Z,14.17
2018-06-18T03:04:04.181Z,14.15
2018-06-18T03:05:04.356Z,14.12
2018-06-18T03:06:04.452Z,14.10
2018-06-18T03:07:04.698Z,14.12
2018-06-18T03:08:04.833Z,14.00
2018-06-18T03:09:05.058Z,14.10
2018-06-18T03:10:05.144Z,14.03
2018-06-18T03:11:05.391Z,13.96
2018-06-18T03:12:05.450Z,13.90
2018-06-18T03:13:05.627Z,13.93
2018-06-18T03:14:05.844Z,13.92
2018-06-18T03:15:06.043Z,14.04
2018-06-18T03:16:06.173Z,13.93
2018-06-18T03:17:06.305Z,13.90
2018-06-18T03:18:06.560Z,13.89
2018-06-18T03:19:06.677Z,13.90
2018-06-18T03:20:06.839Z,13.93
2018-06-18T03:21:07.019Z,13.95
2018-06-18T03:22:07.179Z,13.96
2018-06-18T03:23:07.381Z,14.05
2018-06-18T03:24:07.476Z,14.12
2018-06-18T03:25:07.694Z,14.05
2018-06-18T03:26:07.844Z,14.12
2018-06-18T03:27:07.982Z,14.17
2018-06-18T03:28:08.186Z,14.25
2018-06-18T03:29:08.361Z,14.15
2018-06-18T03:30:08.495Z,14.35
2018-06-18T03:31:08.709Z,14.23
2018-06-18T03:32:08.881Z,14.26
2018-06-18T03:33:09.014Z,14.40
2018-06-18T03:34:09.186Z,14.37
2018-06-18T03:35:09.400Z,14.40
2018-06-18T03:36:09.566Z,14.36
2018-06-18T03:37:09.682Z,14.26
2018-06-18T03:38:09.865Z,14.17
2018-06-18T03:39:10.093Z,14.18
2018-06-18T03:40:10.195Z,14.26
2018-06-18T03:41:10.344Z,14.22
2018-06-18T03:42:10.505Z,14.17
2018-06-18T03:43:10.728Z,14.29
2018-06-18T03:44:10.795Z,14.32
2018-06-18T03:45:11.025Z,14.25
2018-06-18T03:46:11.140Z,14.28
2018-06-18T03:47:11.359Z,14.25
2018-06-18T03:48:11.498Z,14.15
2018-06-18T03:49:11.725Z,14.22
2018-06-18T03:50:11.816Z,14.22
2018-06-18T03:51:12.031Z,14.29
2018-06-18T03:52:12.181Z,14.28
2018-06-18T03:53:12.366Z,14.30
2018-06-18T03:54:12.458Z,14.32
2018-06-18T03:55:12.687Z,14.36
2018-06-18T03:56:12.819Z,14.41
2018-06-18T03:57:12.951Z,14.41
2018-06-18T03:58:13.212Z,14.45
2018-06-18T03:59:13.325Z,14.36
2018-06-18T04:00:13.479Z,14.50
2018-06-18T04:01:13.628Z,14.37
2018-06-18T04:02:13.893Z,14.50
2018-06-18T04:03:14.090Z,14.44
2018-06-18T04:04:14.251Z,14.53
2018-06-18T04:05:14.334Z,14.51
2018-06-18T04:06:14.577Z,14.54
2018-06-18T04:07:14.708Z,14.55
2018-06-18T04:08:14.979Z,14.62
2018-06-18T04:09:14.980Z,14.55
2018-06-18T04:10:15.158Z,14.60
2018-06-18T04:11:15.457Z,14.65
2018-06-18T04:12:15.518Z,14.65
2018-06-18T04:13:15.690Z,14.72
2018-06-18T04:14:15.890Z,14.73
2018-06-18T04:15:16.055Z,14.66
2018-06-18T04:16:16.155Z,14.77
2018-06-18T04:17:16.328Z,14.78
2018-06-18T04:18:16.612Z,14.81
2018-06-18T04:19:16.783Z,14.85
2018-06-18T04:20:16.969Z,14.84
2018-06-18T04:21:17.060Z,14.79
2018-06-18T04:22:17.229Z,14.84
2018-06-18T04:23:17.445Z,14.88
2018-06-18T04:24:17.572Z,14.91
2018-06-18T04:25:17.722Z,14.99
2018-06-18T04:26:17.873Z,14.97
2018-06-18T04:27:18.125Z,15.02
2018-06-18T04:28:18.214Z,15.02
2018-06-18T04:29:18.365Z,15.00
2018-06-18T04:30:18.585Z,14.94
2018-06-18T04:31:18.744Z,15.00
2018-06-18T04:32:18.854Z,14.96
2018-06-18T04:33:19.157Z,15.03
2018-06-18T04:34:19.334Z,14.97
2018-06-18T04:35:19.478Z,15.02
2018-06-18T04:36:19.522Z,15.04
2018-06-18T04:37:19.833Z,15.04
2018-06-18T04:38:19.902Z,15.04
2018-06-18T04:39:20.123Z,15.06
2018-06-18T04:40:20.277Z,15.07
2018-06-18T04:41:20.475Z,15.06
2018-06-18T04:42:20.613Z,15.06
2018-06-18T04:43:20.743Z,15.10
2018-06-18T04:44:20.967Z,15.22
2018-06-18T04:45:21.164Z,15.17
2018-06-18T04:46:21.234Z,15.24
2018-06-18T04:47:21.423Z,15.25
2018-06-18T04:48:21.628Z,15.24
2018-06-18T04:49:21.760Z,15.25
2018-06-18T04:50:22.013Z,15.28
2018-06-18T04:51:22.141Z,15.35
2018-06-18T04:52:22.262Z,15.43
2018-06-18T04:53:22.512Z,15.52
2018-06-18T04:54:22.607Z,15.46
2018-06-18T04:55:22.805Z,15.51
2018-06-18T04:56:23.106Z,15.46
2018-06-18T04:57:23.219Z,15.51
2018-06-18T04:58:23.367Z,15.61
2018-06-18T04:59:23.628Z,15.67
2018-06-18T05:00:23.773Z,15.75
2018-06-18T05:01:23.948Z,15.79
2018-06-18T05:02:24.086Z,15.91
2018-06-18T05:03:24.215Z,15.98
2018-06-18T05:04:24.415Z,16.02
2018-06-18T05:05:24.618Z,16.01
2018-06-18T05:06:24.722Z,16.04
2018-06-18T05:07:24.908Z,16.02
2018-06-18T05:08:25.050Z,16.05
2018-06-18T05:09:25.247Z,16.10
2018-06-18T05:10:25.535Z,16.10
2018-06-18T05:11:25.591Z,16.04
2018-06-18T05:12:25.758Z,16.09
2018-06-18T05:13:25.892Z,16.04
2018-06-18T05:14:26.040Z,16.08
2018-06-18T05:15:26.265Z,16.15
2018-06-18T05:16:26.421Z,16.13
2018-06-18T05:17:26.607Z,16.31
2018-06-18T05:18:26.812Z,16.36
2018-06-18T05:19:27.036Z,16.43
2018-06-18T05:20:27.218Z,16.54
2018-06-18T05:21:27.379Z,16.57
2018-06-18T05:22:27.503Z,16.68
2018-06-18T05:23:27.702Z,16.76
2018-06-18T05:24:27.932Z,16.72
2018-06-18T05:25:28.090Z,16.74
2018-06-18T05:26:28.286Z,16.76
2018-06-18T05:27:28.416Z,16.84
2018-06-18T05:28:28.565Z,16.87
2018-06-18T05:29:28.935Z,16.90
2018-06-18T05:30:28.896Z,17.01
2018-06-18T05:31:29.097Z,16.99
2018-06-18T05:32:29.388Z,17.11
2018-06-18T05:33:29.515Z,17.14
2018-06-18T05:34:29.661Z,17.16
2018-06-18T05:35:29.857Z,17.27
2018-06-18T05:36:30.159Z,17.19
2018-06-18T05:37:30.104Z,17.30
2018-06-18T05:38:30.379Z,17.33
2018-06-18T05:39:30.364Z,17.36
2018-06-18T05:40:30.636Z,17.36
2018-06-18T05:41:30.803Z,17.39
2018-06-18T05:42:30.860Z,17.41
2018-06-18T05:43:31.236Z,17.41
2018-06-18T05:44:31.319Z,17.41
2018-06-18T05:45:31.464Z,17.41
2018-06-18T05:46:31.692Z,17.48
2018-06-18T05:47:31.854Z,17.64
2018-06-18T05:48:31.956Z,17.59
2018-06-18T05:49:32.082Z,17.56
2018-06-18T05:50:32.408Z,17.59
2018-06-18T05:51:32.677Z,17.60
2018-06-18T05:52:32.824Z,17.71
2018-06-18T05:53:32.971Z,17.71
2018-06-18T05:54:33.151Z,17.71
2018-06-18T05:55:33.303Z,17.82
2018-06-18T05:56:33.477Z,17.79
2018-06-18T05:57:33.566Z,17.86
2018-06-18T05:58:33.897Z,17.76
2018-06-18T05:59:34.042Z,17.83
2018-06-18T06:00:35.304Z,17.89
2018-06-18T06:01:34.610Z,17.92
2018-06-18T06:02:34.533Z,18.05
2018-06-18T06:03:34.741Z,18.11
2018-06-18T06:04:34.931Z,18.25
2018-06-18T06:05:35.045Z,18.26
2018-06-18T06:06:35.284Z,18.43
2018-06-18T06:07:35.521Z,18.50
2018-06-18T06:08:37.296Z,18.59
2018-06-18T06:09:48.711Z,18.60
2018-06-18T06:10:38.826Z,18.66
2018-06-18T06:11:39.154Z,18.75
2018-06-18T06:12:36.621Z,18.81
2018-06-18T06:13:36.480Z,18.74
2018-06-18T06:14:36.633Z,18.84
2018-06-18T06:15:36.829Z,18.99
2018-06-18T06:16:37.016Z,18.89
2018-06-18T06:17:37.187Z,19.04
2018-06-18T06:18:37.296Z,19.16
2018-06-18T06:19:37.504Z,19.24
2018-06-18T06:20:37.680Z,19.36
2018-06-18T06:21:37.788Z,19.39
2018-06-18T06:22:37.948Z,19.11
2018-06-18T06:23:38.162Z,19.12
2018-06-18T06:24:38.439Z,19.09
2018-06-18T06:25:38.587Z,19.09
2018-06-18T06:26:38.720Z,19.00
2018-06-18T06:27:38.910Z,18.96
2018-06-18T06:28:39.107Z,18.98
2018-06-18T06:29:39.377Z,18.88
2018-06-18T06:30:39.465Z,18.88
2018-06-18T06:31:39.617Z,19.07
2018-06-18T06:32:39.757Z,19.00
2018-06-18T06:33:40.107Z,19.15
2018-06-18T06:34:40.140Z,19.29
2018-06-18T06:35:40.337Z,19.31
2018-06-18T06:36:40.541Z,19.34
2018-06-18T06:37:40.708Z,19.44
2018-06-18T06:38:40.875Z,19.39
2018-06-18T06:39:41.098Z,19.52
2018-06-18T06:40:41.181Z,19.47
2018-06-18T06:41:41.399Z,19.48
2018-06-18T06:42:41.601Z,19.55
2018-06-18T06:43:42.464Z,19.48
2018-06-18T06:44:41.949Z,19.59
2018-06-18T06:45:42.032Z,19.56
2018-06-18T06:46:42.211Z,19.76
2018-06-18T06:47:42.414Z,19.76
2018-06-18T06:48:42.567Z,19.71
2018-06-18T06:49:42.671Z,19.66
2018-06-18T06:50:42.943Z,19.77
2018-06-18T06:51:43.138Z,19.73
2018-06-18T06:52:43.219Z,19.73
2018-06-18T06:53:43.439Z,19.82
2018-06-18T06:54:43.642Z,19.73
2018-06-18T06:55:43.840Z,19.81
2018-06-18T06:56:44.067Z,19.84
2018-06-18T06:57:44.210Z,19.67
2018-06-18T06:58:44.996Z,19.85
2018-06-18T06:59:44.544Z,19.74
2018-06-18T07:00:44.630Z,19.76
2018-06-18T07:01:44.927Z,19.76
2018-06-18T07:02:45.162Z,19.56
2018-06-18T07:03:45.235Z,19.63
2018-06-18T07:04:45.469Z,19.63
2018-06-18T07:05:45.673Z,19.58
2018-06-18T07:06:45.859Z,19.55
2018-06-18T07:07:45.982Z,19.63
2018-06-18T07:08:46.128Z,19.40
2018-06-18T07:09:46.348Z,19.49
2018-06-18T07:10:46.536Z,19.39
2018-06-18T07:11:46.717Z,19.26
2018-06-18T07:12:46.855Z,19.15
2018-06-18T07:13:47.043Z,19.19
2018-06-18T07:14:47.167Z,19.30
2018-06-18T07:15:47.343Z,19.30
2018-06-18T07:16:47.469Z,19.11
2018-06-18T07:17:47.602Z,19.21
2018-06-18T07:18:47.876Z,19.18
2018-06-18T07:19:47.981Z,19.04
2018-06-18T07:20:48.136Z,19.14
2018-06-18T07:21:48.347Z,19.14
2018-06-18T07:22:48.611Z,19.14
2018-06-18T07:23:48.724Z,19.29
2018-06-18T07:24:48.879Z,19.30
2018-06-18T07:25:49.054Z,19.31
2018-06-18T07:26:49.209Z,19.37
2018-06-18T07:27:49.402Z,19.18
2018-06-18T07:28:49.609Z,19.22
2018-06-18T07:29:49.716Z,19.19
2018-06-18T07:30:50.045Z,19.24
2018-06-18T07:31:50.050Z,19.30
2018-06-18T07:32:50.187Z,19.37
2018-06-18T07:33:50.481Z,19.49
2018-06-18T07:34:50.607Z,19.59
2018-06-18T07:35:50.703Z,19.63
2018-06-18T07:36:51.278Z,19.58
2018-06-18T07:37:51.113Z,19.55
2018-06-18T07:38:51.231Z,19.66
2018-06-18T07:39:51.379Z,19.59
2018-06-18T07:40:51.564Z,19.64
2018-06-18T07:41:51.710Z,19.56
2018-06-18T07:42:51.871Z,19.64
2018-06-18T07:43:52.106Z,19.69
2018-06-18T07:44:52.296Z,19.64
2018-06-18T07:45:52.360Z,19.58
2018-06-18T07:46:52.623Z,19.62
2018-06-18T07:47:52.752Z,19.62
2018-06-18T07:48:52.963Z,19.70
2018-06-18T07:49:53.130Z,19.89
2018-06-18T07:50:53.258Z,19.92
2018-06-18T07:51:53.467Z,19.89
2018-06-18T07:52:53.632Z,19.85
2018-06-18T07:53:53.779Z,19.96
2018-06-18T07:54:54.118Z,19.99
2018-06-18T07:55:54.177Z,19.94
2018-06-18T07:56:54.292Z,19.88
2018-06-18T07:57:54.508Z,19.85
2018-06-18T07:58:54.695Z,19.84
2018-06-18T07:59:54.796Z,19.73
2018-06-18T08:00:55.017Z,19.86
2018-06-18T08:01:55.200Z,19.84
2018-06-18T08:02:55.308Z,19.56
2018-06-18T08:03:55.569Z,19.67
2018-06-18T08:04:55.724Z,19.77
2018-06-18T08:05:55.854Z,19.74
2018-06-18T08:06:56.021Z,19.73
2018-06-18T08:07:56.194Z,19.82
2018-06-18T08:08:56.388Z,19.84
2018-06-18T08:09:56.540Z,19.71
2018-06-18T08:10:56.827Z,19.79
2018-06-18T08:11:56.876Z,19.77
2018-06-18T08:12:57.091Z,19.70
2018-06-18T08:13:57.203Z,19.64
2018-06-18T08:14:57.403Z,19.63
2018-06-18T08:15:57.700Z,19.58
2018-06-18T08:16:57.964Z,19.56
2018-06-18T08:17:58.018Z,19.63
2018-06-18T08:18:58.213Z,19.74
2018-06-18T08:19:58.333Z,19.91
2018-06-18T08:20:58.542Z,19.94
2018-06-18T08:21:58.711Z,20.14
2018-06-18T08:22:58.905Z,20.14
2018-06-18T08:23:59.056Z,20.29
2018-06-18T08:24:59.244Z,20.31
2018-06-18T08:25:59.424Z,20.29
2018-06-18T08:26:59.607Z,20.28
2018-06-18T08:27:59.731Z,20.24
2018-06-18T08:28:59.865Z,20.37
2018-06-18T08:30:00.070Z,20.39
2018-06-18T08:31:00.286Z,20.39
2018-06-18T08:32:00.447Z,20.43
2018-06-18T08:33:00.593Z,20.41
2018-06-18T08:34:00.794Z,20.43
2018-06-18T08:35:00.998Z,20.43
2018-06-18T08:36:01.193Z,20.50
2018-06-18T08:37:01.322Z,20.47
2018-06-18T08:38:01.441Z,20.56
2018-06-18T08:39:01.642Z,20.41
2018-06-18T08:40:01.802Z,20.51
2018-06-18T08:41:01.984Z,20.50
2018-06-18T08:42:02.189Z,20.55
2018-06-18T08:43:02.305Z,20.44
2018-06-18T08:44:02.527Z,20.43
2018-06-18T08:45:02.679Z,20.48
2018-06-18T08:46:02.861Z,20.47
2018-06-18T08:47:03.017Z,20.60
2018-06-18T08:48:03.159Z,20.59
2018-06-18T08:49:03.350Z,20.66
2018-06-18T08:50:03.539Z,20.72
2018-06-18T08:51:03.629Z,20.72
2018-06-18T08:52:03.899Z,20.74
2018-06-18T08:53:04.069Z,20.81
2018-06-18T08:54:04.199Z,20.77
2018-06-18T08:55:04.423Z,20.63
2018-06-18T08:56:04.553Z,20.75
2018-06-18T08:57:04.763Z,20.74
2018-06-18T08:58:04.951Z,20.72
2018-06-18T08:59:05.099Z,20.90
2018-06-18T09:00:05.292Z,20.88
2018-06-18T09:01:05.471Z,20.96
2018-06-18T09:02:05.628Z,20.96
2018-06-18T09:03:05.892Z,21.06
2018-06-18T09:04:05.932Z,21.18
2018-06-18T09:05:06.177Z,21.29
2018-06-18T09:06:06.391Z,21.42
2018-06-18T09:07:06.473Z,21.52
2018-06-18T09:08:06.734Z,21.57
2018-06-18T09:09:06.839Z,21.70
2018-06-18T09:10:07.010Z,21.67
2018-06-18T09:11:07.177Z,21.77
2018-06-18T09:12:07.339Z,21.91
2018-06-18T09:13:07.415Z,21.91
2018-06-18T09:14:07.627Z,21.91
2018-06-18T09:15:07.837Z,21.76
2018-06-18T09:16:07.946Z,21.64
2018-06-18T09:17:08.079Z,21.80
2018-06-18T09:18:08.267Z,21.73
2018-06-18T09:19:08.467Z,21.70
2018-06-18T09:20:08.673Z,21.79
2018-06-18T09:21:08.776Z,22.02
2018-06-18T09:22:09.013Z,22.13
2018-06-18T09:23:09.234Z,22.04
2018-06-18T09:24:09.340Z,22.10
2018-06-18T09:25:09.510Z,22.14
2018-06-18T09:26:09.645Z,22.14
2018-06-18T09:27:09.817Z,21.98
2018-06-18T09:28:10.026Z,21.82
2018-06-18T09:29:10.151Z,21.79
2018-06-18T09:30:10.372Z,21.73
2018-06-18T09:31:10.598Z,21.72
2018-06-18T09:32:10.766Z,21.69
2018-06-18T09:33:10.853Z,21.88
2018-06-18T09:34:11.063Z,21.88
2018-06-18T09:35:11.239Z,22.17
2018-06-18T09:36:11.351Z,22.38
2018-06-18T09:37:11.555Z,22.62
2018-06-18T09:38:11.773Z,22.78
2018-06-18T09:39:11.869Z,22.94
2018-06-18T09:40:12.015Z,23.23
2018-06-18T09:41:12.249Z,23.40
2018-06-18T09:42:12.436Z,23.74
2018-06-18T09:43:12.617Z,23.88
2018-06-18T09:44:12.746Z,23.91
2018-06-18T09:45:12.905Z,23.93
2018-06-18T09:46:13.081Z,23.87
2018-06-18T09:47:13.298Z,23.77
2018-06-18T09:48:13.439Z,23.81
2018-06-18T09:49:13.637Z,23.71
2018-06-18T09:50:13.765Z,23.76
2018-06-18T09:51:13.921Z,23.81
2018-06-18T09:52:14.090Z,23.96
2018-06-18T09:53:14.261Z,23.83
2018-06-18T09:54:14.441Z,23.88
2018-06-18T09:55:14.662Z,24.02
2018-06-18T09:56:14.850Z,24.08
2018-06-18T09:57:15.006Z,24.23
2018-06-18T09:58:15.209Z,24.51
2018-06-18T09:59:15.351Z,24.48
2018-06-18T10:00:15.522Z,24.35
2018-06-18T10:01:15.714Z,24.24
2018-06-18T10:02:15.938Z,24.16
2018-06-18T10:03:16.030Z,23.81
2018-06-18T10:04:16.241Z,23.83
2018-06-18T10:05:16.365Z,23.88
2018-06-18T10:06:16.569Z,23.66
2018-06-18T10:07:16.724Z,23.51
2018-06-18T10:08:16.895Z,23.43
2018-06-18T10:09:17.055Z,23.77
2018-06-18T10:10:17.204Z,23.84
2018-06-18T10:11:17.394Z,23.91
2018-06-18T10:12:17.611Z,23.95
2018-06-18T10:13:17.724Z,23.95
2018-06-18T10:14:17.865Z,24.03
2018-06-18T10:15:18.068Z,24.10
2018-06-18T10:16:18.279Z,24.18
2018-06-18T10:17:18.428Z,24.02
2018-06-18T10:18:18.635Z,24.21
2018-06-18T10:19:18.726Z,24.21
2018-06-18T10:20:18.989Z,24.23
2018-06-18T10:21:19.133Z,24.10
2018-06-18T10:22:19.267Z,23.87
2018-06-18T10:23:19.451Z,23.73
2018-06-18T10:24:19.660Z,23.39
2018-06-18T10:25:19.810Z,23.28
2018-06-18T10:26:19.991Z,23.34
2018-06-18T10:27:20.111Z,23.23
2018-06-18T10:28:20.377Z,23.09
2018-06-18T10:29:20.453Z,23.00
2018-06-18T10:30:20.593Z,23.00
2018-06-18T10:31:20.832Z,23.00
2018-06-18T10:32:21.017Z,22.96
2018-06-18T10:33:21.128Z,22.83
2018-06-18T10:34:21.336Z,22.78
2018-06-18T10:35:21.472Z,22.72
2018-06-18T10:36:21.665Z,22.84
2018-06-18T10:37:21.841Z,22.85
2018-06-18T10:38:22.020Z,22.88
2018-06-18T10:39:22.191Z,22.99
2018-06-18T10:40:22.382Z,22.90
2018-06-18T10:41:22.522Z,22.75
2018-06-18T10:42:22.706Z,22.78
2018-06-18T10:43:22.882Z,22.90
2018-06-18T10:44:23.122Z,22.87
2018-06-18T10:45:23.265Z,22.87
2018-06-18T10:46:23.389Z,22.94
2018-06-18T10:47:23.544Z,23.03
2018-06-18T10:48:23.763Z,22.85
2018-06-18T10:49:23.898Z,22.78
2018-06-18T10:50:24.048Z,22.72
2018-06-18T10:51:24.235Z,22.72
2018-06-18T10:52:24.457Z,22.69
2018-06-18T10:53:24.661Z,22.70
2018-06-18T10:54:24.854Z,22.50
2018-06-18T10:55:25.000Z,22.62
2018-06-18T10:56:25.163Z,22.66
2018-06-18T10:57:25.321Z,22.83
2018-06-18T10:58:25.542Z,22.84
2018-06-18T10:59:25.645Z,22.69
2018-06-18T11:00:25.854Z,22.80
2018-06-18T11:01:26.039Z,22.98
2018-06-18T11:02:26.166Z,23.00
2018-06-18T11:03:26.376Z,23.18
2018-06-18T11:04:26.595Z,23.27
2018-06-18T11:05:26.833Z,23.47
2018-06-18T11:06:26.969Z,23.50
2018-06-18T11:07:27.110Z,23.43
2018-06-18T11:08:27.237Z,23.61
2018-06-18T11:09:27.393Z,23.73
2018-06-18T11:10:27.631Z,23.56
2018-06-18T11:11:27.741Z,23.54
2018-06-18T11:12:28.019Z,23.40
2018-06-18T11:13:28.073Z,23.37
2018-06-18T11:14:28.297Z,23.20
2018-06-18T11:15:28.461Z,23.09
2018-06-18T11:16:28.739Z,23.09
2018-06-18T11:17:29.012Z,22.99
2018-06-18T11:18:29.055Z,23.00
2018-06-18T11:19:29.184Z,23.03
2018-06-18T11:20:29.330Z,23.20
2018-06-18T11:21:29.518Z,23.40
2018-06-18T11:22:29.771Z,23.56
2018-06-18T11:23:29.934Z,23.76
2018-06-18T11:24:30.109Z,23.91
2018-06-18T11:25:30.274Z,24.11
2018-06-18T11:26:30.460Z,24.32
2018-06-18T11:27:30.637Z,24.39
2018-06-18T11:28:30.786Z,24.43
2018-06-18T11:29:30.948Z,24.61
2018-06-18T11:30:31.177Z,24.39
2018-06-18T11:31:31.346Z,24.21
2018-06-18T11:32:31.483Z,24.14
2018-06-18T11:33:31.710Z,23.88
2018-06-18T11:34:31.857Z,23.87
2018-06-18T11:35:32.037Z,23.76
2018-06-18T11:36:32.200Z,23.68
2018-06-18T11:37:32.395Z,23.51
2018-06-18T11:38:32.502Z,23.47
2018-06-18T11:39:32.721Z,23.36
2018-06-18T11:40:32.849Z,23.09
2018-06-18T11:41:33.020Z,22.99
2018-06-18T11:42:33.184Z,23.00
2018-06-18T11:43:33.377Z,22.99
2018-06-18T11:44:33.543Z,23.03
2018-06-18T11:45:33.725Z,23.00
2018-06-18T11:46:33.882Z,22.99
2018-06-18T11:47:34.099Z,23.05
2018-06-18T11:48:34.230Z,22.96
2018-06-18T11:49:34.411Z,23.05
2018-06-18T11:50:34.642Z,23.10
2018-06-18T11:51:34.761Z,23.21
2018-06-18T11:52:34.954Z,23.36
2018-06-18T11:53:35.136Z,23.37
2018-06-18T11:54:35.236Z,23.43
2018-06-18T11:55:35.441Z,23.32
2018-06-18T11:56:35.584Z,23.28
2018-06-18T11:57:35.878Z,23.48
2018-06-18T11:58:35.968Z,23.66
2018-06-18T11:59:36.154Z,23.77
2018-06-18T12:00:36.266Z,23.74
2018-06-18T12:01:36.456Z,23.87
2018-06-18T12:02:36.714Z,23.91
2018-06-18T12:03:36.850Z,24.08
2018-06-18T12:04:36.969Z,24.03
2018-06-18T12:05:37.201Z,24.20
2018-06-18T12:06:37.416Z,24.17
2018-06-18T12:07:37.467Z,24.43
2018-06-18T12:08:37.648Z,24.33
2018-06-18T12:09:37.871Z,24.18
2018-06-18T12:10:38.006Z,24.43
2018-06-18T12:11:38.163Z,24.53
2018-06-18T12:12:38.310Z,24.89
2018-06-18T12:13:38.571Z,25.06
2018-06-18T12:14:38.749Z,25.01
2018-06-18T12:15:38.867Z,25.08
2018-06-18T12:16:39.134Z,25.21
2018-06-18T12:17:39.189Z,25.26
2018-06-18T12:18:39.404Z,25.33
2018-06-18T12:19:39.524Z,25.40
2018-06-18T12:20:39.741Z,25.41
2018-06-18T12:21:39.889Z,25.58
2018-06-18T12:22:40.082Z,25.63
2018-06-18T12:23:40.304Z,25.62
2018-06-18T12:24:40.473Z,25.60
2018-06-18T12:25:40.644Z,25.60
2018-06-18T12:26:40.817Z,25.22
2018-06-18T12:27:40.975Z,25.31
2018-06-18T12:28:41.142Z,25.32
2018-06-18T12:29:41.315Z,24.99
2018-06-18T12:30:41.500Z,24.76
2018-06-18T12:31:41.671Z,24.70
2018-06-18T12:32:41.870Z,24.58
2018-06-18T12:33:42.016Z,24.29
2018-06-18T12:34:42.178Z,24.10
2018-06-18T12:35:42.436Z,24.02
2018-06-18T12:36:42.509Z,23.88
2018-06-18T12:37:42.723Z,23.78
2018-06-18T12:38:42.932Z,23.71
2018-06-18T12:39:43.070Z,23.76
2018-06-18T12:40:43.241Z,23.73
2018-06-18T12:41:43.396Z,23.74
2018-06-18T12:42:43.595Z,23.56
2018-06-18T12:43:43.770Z,23.71
2018-06-18T12:44:43.987Z,23.83
2018-06-18T12:45:44.224Z,23.81
2018-06-18T12:46:44.472Z,23.81
2018-06-18T12:47:44.580Z,23.93
2018-06-18T12:48:44.740Z,24.28
2018-06-18T12:49:44.872Z,24.70
2018-06-18T12:50:45.070Z,24.86
2018-06-18T12:51:45.228Z,25.16
2018-06-18T12:52:45.419Z,25.11
2018-06-18T12:53:45.600Z,25.04
2018-06-18T12:54:45.774Z,25.84
2018-06-18T12:55:45.981Z,25.62
2018-06-18T12:56:46.140Z,25.77
2018-06-18T12:57:46.261Z,26.02
2018-06-18T12:58:46.388Z,27.02
2018-06-18T12:59:46.626Z,27.92
2018-06-18T13:00:46.807Z,27.90
2018-06-18T13:01:46.984Z,27.68
2018-06-18T13:02:47.187Z,28.38
2018-06-18T13:03:47.295Z,29.38
2018-06-18T13:04:47.442Z,29.19
2018-06-18T13:05:47.693Z,28.84
2018-06-18T13:06:47.785Z,28.89
2018-06-18T13:07:47.992Z,28.96
2018-06-18T13:08:48.230Z,28.74
2018-06-18T13:09:48.347Z,27.93
2018-06-18T13:10:48.613Z,27.65
2018-06-18T13:11:48.718Z,27.32
2018-06-18T13:12:48.917Z,26.63
2018-06-18T13:13:49.055Z,26.21
2018-06-18T13:14:49.217Z,26.41
2018-06-18T13:15:49.358Z,26.56
2018-06-18T13:16:49.566Z,26.59
2018-06-18T13:17:49.738Z,26.62
2018-06-18T13:18:49.881Z,26.51
2018-06-18T13:19:50.152Z,26.41
2018-06-18T13:20:50.275Z,26.45
2018-06-18T13:21:50.474Z,26.23
2018-06-18T13:22:50.667Z,26.02
2018-06-18T13:23:50.836Z,25.85
2018-06-18T13:24:51.031Z,25.81
2018-06-18T13:25:51.186Z,25.66
2018-06-18T13:26:51.384Z,25.33
2018-06-18T13:27:51.572Z,25.26
2018-06-18T13:28:51.672Z,25.28
2018-06-18T13:29:51.853Z,25.38
2018-06-18T13:30:52.005Z,25.40
2018-06-18T13:31:52.230Z,25.58
2018-06-18T13:32:52.403Z,25.59
2018-06-18T13:33:52.536Z,26.00
2018-06-18T13:34:52.679Z,25.85
2018-06-18T13:35:52.864Z,25.77
2018-06-18T13:36:52.993Z,25.77
2018-06-18T13:37:53.246Z,25.75
2018-06-18T13:38:53.369Z,25.65
2018-06-18T13:39:53.589Z,25.41
2018-06-18T13:40:53.739Z,25.23
2018-06-18T13:41:53.933Z,25.06
2018-06-18T13:42:54.075Z,25.03
2018-06-18T13:43:54.259Z,25.08
2018-06-18T13:44:54.458Z,24.89
2018-06-18T13:45:54.595Z,24.88
2018-06-18T13:46:54.704Z,24.73
2018-06-18T13:47:54.953Z,24.68
2018-06-18T13:48:55.069Z,24.66
2018-06-18T13:49:55.261Z,24.47
2018-06-18T13:50:55.432Z,24.28
2018-06-18T13:51:55.650Z,24.84
2018-06-18T13:52:55.803Z,25.55
2018-06-18T13:53:56.018Z,25.70
2018-06-18T13:54:56.135Z,25.83
2018-06-18T13:55:56.340Z,26.25
2018-06-18T13:56:56.557Z,26.62
2018-06-18T13:57:56.659Z,26.58
2018-06-18T13:58:56.895Z,26.41
2018-06-18T13:59:57.068Z,26.25
2018-06-18T14:00:57.236Z,26.22
2018-06-18T14:01:57.413Z,26.23
2018-06-18T14:02:57.532Z,26.06
2018-06-18T14:03:57.683Z,26.10
2018-06-18T14:04:57.914Z,26.06
2018-06-18T14:05:58.070Z,26.07
2018-06-18T14:06:58.191Z,26.22
2018-06-18T14:07:58.442Z,26.19
2018-06-18T14:08:58.564Z,26.78
2018-06-18T14:09:58.710Z,26.96
2018-06-18T14:10:58.944Z,27.25
2018-06-18T14:11:59.129Z,27.73
2018-06-18T14:12:59.338Z,28.20
2018-06-18T14:13:59.464Z,27.77
2018-06-18T14:14:59.585Z,28.47
2018-06-18T14:15:59.759Z,28.97
2018-06-18T14:16:59.955Z,29.45
2018-06-18T14:18:00.174Z,29.59
2018-06-18T14:19:00.348Z,29.12
2018-06-18T14:20:00.540Z,28.42
2018-06-18T14:21:00.699Z,27.87
2018-06-18T14:22:00.844Z,27.35
2018-06-18T14:23:01.018Z,27.05
2018-06-18T14:24:01.192Z,26.65
2018-06-18T14:25:01.369Z,26.37
2018-06-18T14:26:01.537Z,26.07
2018-06-18T14:27:01.718Z,25.81
2018-06-18T14:28:01.893Z,25.58
2018-06-18T14:29:02.021Z,25.38
2018-06-18T14:30:02.237Z,24.99
2018-06-18T14:31:02.442Z,24.80
2018-06-18T14:32:02.572Z,24.68
2018-06-18T14:33:02.723Z,24.70
2018-06-18T14:34:02.947Z,24.60
2018-06-18T14:35:03.075Z,24.61
2018-06-18T14:36:03.200Z,24.69
2018-06-18T14:37:03.448Z,24.76
2018-06-18T14:38:03.613Z,25.04
2018-06-18T14:39:03.765Z,25.17
2018-06-18T14:40:03.941Z,25.36
2018-06-18T14:41:04.161Z,25.46
2018-06-18T14:42:04.383Z,26.02
2018-06-18T14:43:04.427Z,26.73
2018-06-18T14:44:04.590Z,27.52
2018-06-18T14:45:04.885Z,27.64
2018-06-18T14:46:05.132Z,27.85
2018-06-18T14:47:05.166Z,27.87
2018-06-18T14:48:05.240Z,27.60
2018-06-18T14:49:05.455Z,27.35
2018-06-18T14:50:05.661Z,27.54
2018-06-18T14:51:05.805Z,27.54
2018-06-18T14:52:05.958Z,27.44
2018-06-18T14:53:06.158Z,26.93
2018-06-18T14:54:06.402Z,26.96
2018-06-18T14:55:06.516Z,26.81
2018-06-18T14:56:06.813Z,26.80
2018-06-18T14:57:06.934Z,27.67
2018-06-18T14:58:07.138Z,27.44
2018-06-18T14:59:07.305Z,27.60
2018-06-18T15:00:07.491Z,28.32
2018-06-18T15:01:07.626Z,27.89
2018-06-18T15:02:07.790Z,27.67
2018-06-18T15:03:07.953Z,27.37
2018-06-18T15:04:08.234Z,27.11
2018-06-18T15:05:08.304Z,26.92
2018-06-18T15:06:08.500Z,26.96
2018-06-18T15:07:08.694Z,26.83
2018-06-18T15:08:08.878Z,26.59
2018-06-18T15:09:09.211Z,26.48
2018-06-18T15:10:09.270Z,26.99
2018-06-18T15:11:09.424Z,27.67
2018-06-18T15:12:09.580Z,27.63
2018-06-18T15:13:09.725Z,28.32
2018-06-18T15:14:09.898Z,28.78
2018-06-18T15:15:10.208Z,29.27
2018-06-18T15:16:10.218Z,29.10
2018-06-18T15:17:10.410Z,28.63
2018-06-18T15:18:10.661Z,28.69
2018-06-18T15:19:10.785Z,28.94
2018-06-18T15:20:10.965Z,28.97
2018-06-18T15:21:11.188Z,29.26
2018-06-18T15:22:11.266Z,29.27
2018-06-18T15:23:11.465Z,29.35
2018-06-18T15:24:11.634Z,29.07
2018-06-18T15:25:11.858Z,28.89
2018-06-18T15:26:12.040Z,29.20
2018-06-18T15:27:12.246Z,28.39
2018-06-18T15:28:12.348Z,28.25
2018-06-18T15:29:12.518Z,28.47
2018-06-18T15:30:12.756Z,28.29
2018-06-18T15:31:12.892Z,28.57
2018-06-18T15:32:13.118Z,29.08
2018-06-18T15:33:13.281Z,29.26
2018-06-18T15:34:13.418Z,29.44
2018-06-18T15:35:13.599Z,29.32
2018-06-18T15:36:13.799Z,29.42
2018-06-18T15:37:13.936Z,29.65
2018-06-18T15:38:14.233Z,29.59
2018-06-18T15:39:14.235Z,29.81
2018-06-18T15:40:14.457Z,30.02
2018-06-18T15:41:14.607Z,30.15
2018-06-18T15:42:14.804Z,30.27
2018-06-18T15:43:15.018Z,30.27
2018-06-18T15:44:15.301Z,30.62
2018-06-18T15:45:15.313Z,30.50
2018-06-18T15:46:15.524Z,30.44
2018-06-18T15:47:15.692Z,30.03
2018-06-18T15:48:15.832Z,30.10
2018-06-18T15:49:15.951Z,29.87
2018-06-18T15:50:16.223Z,29.86
2018-06-18T15:51:16.376Z,29.66
2018-06-18T15:52:16.600Z,29.71
2018-06-18T15:53:16.707Z,29.61
2018-06-18T15:54:16.882Z,29.35
2018-06-18T15:55:17.004Z,29.38